Impacts TAF Board INFO
FOR SITUATIONAL AWARENESS. NOT TO BE USED FOR FLIGHT PLANNING PURPOSES.
IDs:

KTLH - Tallahassee Intl, FL, US

Issued at 1725 UTC 21 Nov 2017
Updated at 2117 UTC 21 Nov 2017
Potential Impact None Slight Moderate High
Time2100Z 21/22Z 21/23Z 22/00Z 22/01Z 22/02Z 22/03Z 22/04Z 22/05Z 22/06Z 22/07Z 22/08Z 22/09Z 22/10Z>>
Type OBS PRVL PRVL PRVL PRVL PRVL PRVL PRVL PRVL PRVL PRVL PRVL PRVL PRVL
VIS 4 >6 >6 >6 >6 >6 >6 >6 >6 >6 >6 >6 3 3
CIG 33 30 30 30 30 30 30 30 30 15 15 15 10 10
Cover OVC BKN BKN BKN BKN BKN BKN BKN BKN OVC OVC OVC OVC OVC
FltCat MVFR MVFR MVFR MVFR MVFR MVFR MVFR MVFR MVFR MVFR MVFR MVFR MVFR MVFR
WX TSRA BR -RA -RA -RA -RA -RA -RA -RA -RA -- -- -- BR BR
WDir 130 110 110 110 110 110 110 110 110 20 20 20 VRB VRB
WSpd 5 5 5 5 5 5 5 5 5 3 3 3 0 0
WGst -- -- -- -- -- -- -- -- -- -- -- -- -- --

Raw TAF
KTLH 211725Z 2118/2218 09006KT P6SM VCSH BKN050
  FM211900 11005KT P6SM -RA BKN030
  FM220600 02003KT P6SM OVC015
  FM220900 00000KT 3SM BR OVC010
  FM221400 03006KT P6SM BKN015


Raw METAR
KTLH 212100Z 13005KT 4SM TSRA BR SCT019 BKN033CB OVC075 17/17 A2996 RMK AO2 LTG DSNT W AND NW P0002 T01720167
KTLH 212053Z 15005KT 4SM TSRA BR BKN019 BKN036CB OVC075 17/17 A2997 RMK AO2 LTG DSNT W AND NW RAB03 TSB1958E46B51 SLP146 OCNL LTGIC W AND NW TS W AND NW MOV NE P0004 60004 T01720167 53001
KTLH 212004Z 10007KT 10SM -TSRA SCT042CB SCT060 OVC120 18/16 A2996 RMK AO2 LTG DSNT SW RAB03 TSB1958 OCNL LTGIC S-SW TS S-SW MOV NE P0000 T01830156
KTLH 211953Z 09005KT 10SM FEW041 SCT049 BKN060 OVC180 19/16 A2996 RMK AO2 LTG DSNT S AND SW SLP144 CB DSNT S AND SW T01890156
KTLH 211853Z 12005KT 10SM FEW050 BKN085 OVC180 19/15 A2996 RMK AO2 SLP145 T01940150

METAR Board
Radar Display
Forecast Discussion

FOR SITUATIONAL AWARENESS. NOT TO BE USED FOR FLIGHT PLANNING PURPOSES.